This is the latest recevied weather packets stored in our database for station/object I5EKX-13. If no packets are shown the sender has not sent any weather packets the latest 10 day(s).
| Time | Temp. | Humidity | Pressure | Rain* | Wind** | Luminosity | Snow |
|---|---|---|---|---|---|---|---|
| 1777401267 | 15° C | 79% | 1010.2 hPa | - | - | - | - |
| 1777400063 | 15.56° C | 77% | 1010.2 hPa | - | - | - | - |
| 1777398859 | 16.67° C | 76% | 1010 hPa | - | - | - | - |
| 1777397655 | 17.78° C | 73% | 1009.9 hPa | - | - | - | - |
| 1777396451 | 18.89° C | 69% | 1009.9 hPa | - | - | - | - |
| 1777394043 | 18.89° C | 67% | 1009.9 hPa | - | - | - | - |
| 1777392839 | 20° C | 65% | 1009.9 hPa | - | - | - | - |
| 1777391635 | 20° C | 64% | 1010.1 hPa | - | - | - | - |
| 1777390431 | 20.56° C | 64% | 1010.1 hPa | - | - | - | - |
| 1777389227 | 20.56° C | 61% | 1010 hPa | - | - | - | - |
| 1777388023 | 21.11° C | 61% | 1010.1 hPa | - | - | - | - |
| 1777386819 | 22.22° C | 55% | 1010.4 hPa | - | - | - | - |
| 1777385615 | 22.78° C | 54% | 1010.5 hPa | - | - | - | - |
| 1777384411 | 23.89° C | 48% | 1010.7 hPa | - | - | - | - |
| 1777383207 | 24.44° C | 47% | 1010.8 hPa | - | - | - | - |
| 1777382003 | 24.44° C | 44% | 1011 hPa | - | - | - | - |
| 1777379596 | 25° C | 51% | 1011 hPa | - | - | - | - |
| 1777378391 | 26.11° C | 53% | 1011.1 hPa | - | - | - | - |
| 1777377188 | 24.44° C | 57% | 1011.2 hPa | - | - | - | - |
| 1777375983 | 25° C | 56% | 1011.2 hPa | - | - | - | - |
| 1777374780 | 25.56° C | 54% | 1011.5 hPa | - | - | - | - |
| 1777373576 | 25° C | 56% | 1011.7 hPa | - | - | - | - |
| 1777372372 | 23.33° C | 60% | 1011.9 hPa | - | - | - | - |
| 1777371167 | 23.33° C | 59% | 1012.1 hPa | - | - | - | - |
| 1777367556 | 22.78° C | 59% | 1012.1 hPa | - | - | - | - |
* Rain since midnight (hover to see other rain measurements)
** Current wind speed in m/s (hover to see current wind gust speed)